Time;durP1;ratioP1;P1;durP2;ratioP2;P2;SDS_P1;SDS_P2;PMS_P1;PMS_P2;Temp;Humidity;BMP_temperature;BMP_pressure;BME280_temperature;BME280_humidity;BME280_pressure;Samples;Min_cycle;Max_cycle;Signal;HPM_P1;HPM_P2
2021/08/23 00:00:54;;;;;;;12.40;11.20;;;;;;;;;;5053106;28;20228;-63
2021/08/23 00:03:19;;;;;;;12.20;11.20;;;;;;;;;;5055384;28;20205;-64
2021/08/23 00:05:45;;;;;;;12.50;11.33;;;;;;;;;;5052700;28;20358;-63
2021/08/23 00:08:10;;;;;;;11.03;9.93;;;;;;;;;;5053384;28;20213;-63
2021/08/23 00:10:35;;;;;;;11.37;10.47;;;;;;;;;;5052802;28;20255;-63
2021/08/23 00:13:01;;;;;;;11.47;10.57;;;;;;;;;;5053391;28;20610;-63
2021/08/23 00:15:26;;;;;;;12.20;11.30;;;;;;;;;;5053252;28;20217;-64
2021/08/23 00:17:51;;;;;;;13.27;12.07;;;;;;;;;;5052789;28;20545;-64
2021/08/23 00:20:21;;;;;;;12.90;11.90;;;;;;;;;;5053300;28;20679;-64
2021/08/23 00:22:51;;;;;;;10.03;9.23;;;;;;;;;;5052853;28;20628;-64
2021/08/23 00:25:18;;;;;;;12.00;11.00;;;;;;;;;;5053296;28;20460;-63
2021/08/23 00:27:43;;;;;;;12.97;11.83;;;;;;;;;;5052778;28;20462;-63
2021/08/23 00:30:13;;;;;;;12.33;11.30;;;;;;;;;;5035601;28;20456;-63
2021/08/23 00:32:39;;;;;;;12.30;11.30;;;;;;;;;;5052927;28;20225;-66
2021/08/23 00:35:05;;;;;;;12.20;11.20;;;;;;;;;;5053172;28;20539;-65
2021/08/23 00:37:30;;;;;;;12.27;11.30;;;;;;;;;;5053224;28;20852;-63
2021/08/23 00:39:56;;;;;;;12.20;11.10;;;;;;;;;;5053502;28;20279;-63
2021/08/23 00:42:21;;;;;;;13.13;12.03;;;;;;;;;;5057042;28;20304;-62
2021/08/23 00:44:47;;;;;;;12.77;11.57;;;;;;;;;;5056480;28;20221;-63
2021/08/23 00:47:12;;;;;;;14.23;13.03;;;;;;;;;;5056897;28;20550;-63
2021/08/23 00:49:38;;;;;;;13.70;12.60;;;;;;;;;;5056332;28;20292;-63
2021/08/23 00:52:04;;;;;;;13.40;12.10;;;;;;;;;;5039485;28;20232;-63
2021/08/23 00:54:30;;;;;;;13.87;12.67;;;;;;;;;;5056420;28;20217;-63
2021/08/23 00:56:55;;;;;;;13.70;12.50;;;;;;;;;;5056154;28;20451;-63
2021/08/23 00:59:22;;;;;;;13.30;12.10;;;;;;;;;;5056413;28;20209;-63
2021/08/23 01:01:54;;;;;;;12.93;11.73;;;;;;;;;;5056175;28;20233;-64
2021/08/23 01:05:01;;;;;;;13.83;12.70;;;;;;;;;;5056623;28;20455;-63
2021/08/23 01:07:32;;;;;;;13.30;12.17;;;;;;;;;;5055404;28;20767;-63
2021/08/23 01:10:03;;;;;;;13.43;12.23;;;;;;;;;;5056309;28;20947;-63
2021/08/23 01:12:29;;;;;;;14.53;13.23;;;;;;;;;;5038444;28;20529;-63
2021/08/23 01:14:55;;;;;;;13.77;12.70;;;;;;;;;;5038907;28;20474;-64
2021/08/23 01:17:20;;;;;;;14.00;12.80;;;;;;;;;;5055821;28;20460;-64
2021/08/23 01:19:53;;;;;;;13.13;12.03;;;;;;;;;;5056234;28;20239;-63
2021/08/23 01:22:18;;;;;;;13.90;12.70;;;;;;;;;;5055978;28;20212;-63
2021/08/23 01:24:45;;;;;;;13.13;12.07;;;;;;;;;;5056125;28;20782;-63
2021/08/23 01:27:12;;;;;;;13.60;12.20;;;;;;;;;;5038652;28;20244;-63
2021/08/23 01:30:02;;;;;;;14.00;12.80;;;;;;;;;;5055516;28;20977;-64
2021/08/23 01:32:28;;;;;;;12.60;11.30;;;;;;;;;;5055513;28;20463;-64
2021/08/23 01:34:56;;;;;;;12.70;11.40;;;;;;;;;;5056013;28;20517;-64
2021/08/23 01:37:21;;;;;;;10.60;9.70;;;;;;;;;;5055444;28;20531;-64
2021/08/23 01:39:47;;;;;;;12.90;11.80;;;;;;;;;;5055936;28;20546;-64
2021/08/23 01:42:13;;;;;;;12.47;11.37;;;;;;;;;;5055813;28;20639;-64
2021/08/23 01:44:40;;;;;;;13.00;11.73;;;;;;;;;;5037688;28;20448;-64
2021/08/23 01:47:05;;;;;;;12.37;11.27;;;;;;;;;;5038280;28;20221;-64
2021/08/23 01:49:30;;;;;;;13.20;12.03;;;;;;;;;;5055231;28;20463;-64
2021/08/23 01:51:55;;;;;;;11.83;10.73;;;;;;;;;;5054898;28;20237;-64
2021/08/23 01:54:22;;;;;;;12.73;11.50;;;;;;;;;;5055176;28;20300;-63
2021/08/23 01:56:47;;;;;;;14.07;12.73;;;;;;;;;;5055555;28;20221;-63
2021/08/23 01:59:12;;;;;;;13.73;12.57;;;;;;;;;;5055385;28;20485;-64
2021/08/23 02:01:37;;;;;;;13.07;11.97;;;;;;;;;;5055227;28;20221;-64
2021/08/23 02:04:03;;;;;;;13.50;12.40;;;;;;;;;;5055755;28;20696;-64
2021/08/23 02:06:28;;;;;;;13.80;12.50;;;;;;;;;;5055080;28;20248;-64
2021/08/23 02:08:54;;;;;;;13.63;12.50;;;;;;;;;;5055347;28;20209;-64
2021/08/23 02:11:23;;;;;;;15.83;12.13;;;;;;;;;;5054536;28;20237;-64
2021/08/23 02:13:48;;;;;;;14.27;13.07;;;;;;;;;;5055244;28;20608;-64
2021/08/23 02:16:14;;;;;;;13.60;12.40;;;;;;;;;;5055268;28;20459;-64
2021/08/23 02:18:39;;;;;;;12.73;11.73;;;;;;;;;;5054645;28;20299;-64
2021/08/23 02:21:04;;;;;;;12.60;10.80;;;;;;;;;;5055071;28;20225;-63
2021/08/23 02:23:30;;;;;;;11.13;10.23;;;;;;;;;;5054568;28;20209;-63
2021/08/23 02:25:55;;;;;;;10.30;9.40;;;;;;;;;;5055374;28;20227;-63
2021/08/23 02:28:21;;;;;;;10.10;9.30;;;;;;;;;;5054599;28;20224;-63
2021/08/23 02:30:46;;;;;;;9.97;9.17;;;;;;;;;;5054781;28;20221;-63
2021/08/23 02:33:12;;;;;;;9.53;8.57;;;;;;;;;;5054971;28;20554;-64
2021/08/23 02:35:37;;;;;;;8.57;7.87;;;;;;;;;;5054416;28;20275;-64
2021/08/23 02:38:02;;;;;;;9.30;8.60;;;;;;;;;;5054862;28;20224;-63
2021/08/23 02:40:27;;;;;;;8.77;8.07;;;;;;;;;;5054412;28;20665;-64
2021/08/23 02:42:53;;;;;;;7.43;6.70;;;;;;;;;;5054698;28;20352;-63
2021/08/23 02:45:18;;;;;;;6.83;6.30;;;;;;;;;;5036990;28;20283;-63
2021/08/23 02:47:43;;;;;;;6.30;5.80;;;;;;;;;;5054196;28;20547;-64
2021/08/23 02:50:11;;;;;;;6.10;5.60;;;;;;;;;;5054264;28;20270;-64
2021/08/23 02:52:37;;;;;;;6.43;5.93;;;;;;;;;;5054232;28;20221;-64
2021/08/23 02:55:03;;;;;;;5.27;4.07;;;;;;;;;;5054265;28;20547;-64
2021/08/23 02:57:29;;;;;;;4.93;4.53;;;;;;;;;;5042911;28;20731;-64
2021/08/23 02:59:54;;;;;;;4.13;3.30;;;;;;;;;;5054154;28;20611;-64
2021/08/23 03:02:19;;;;;;;4.30;4.00;;;;;;;;;;5054281;28;20660;-64
2021/08/23 03:04:45;;;;;;;4.93;4.53;;;;;;;;;;5053659;28;20224;-64
2021/08/23 03:07:10;;;;;;;4.40;4.10;;;;;;;;;;5054366;28;20213;-64
2021/08/23 03:09:35;;;;;;;3.40;3.10;;;;;;;;;;5053768;28;20307;-64
2021/08/23 03:12:00;;;;;;;4.03;3.73;;;;;;;;;;5036979;28;20217;-63
2021/08/23 03:14:26;;;;;;;3.87;3.50;;;;;;;;;;5053422;28;20213;-63
2021/08/23 03:16:51;;;;;;;3.47;3.17;;;;;;;;;;5036172;28;20279;-64
2021/08/23 03:19:16;;;;;;;4.30;3.73;;;;;;;;;;5054023;28;20228;-64
2021/08/23 03:21:42;;;;;;;5.20;4.80;;;;;;;;;;5053618;28;20209;-64
2021/08/23 03:24:07;;;;;;;5.10;4.60;;;;;;;;;;5054196;28;20292;-64
2021/08/23 03:26:32;;;;;;;5.60;5.20;;;;;;;;;;5053566;28;20221;-63
2021/08/23 03:28:57;;;;;;;6.13;5.70;;;;;;;;;;5053870;28;20240;-64
2021/08/23 03:31:23;;;;;;;6.57;6.07;;;;;;;;;;5053781;28;20639;-63
2021/08/23 03:33:48;;;;;;;6.83;6.33;;;;;;;;;;5053578;28;20225;-63
2021/08/23 03:36:13;;;;;;;7.10;6.50;;;;;;;;;;5053772;28;20275;-63
2021/08/23 03:38:40;;;;;;;7.43;6.93;;;;;;;;;;5053235;28;20216;-64
2021/08/23 03:41:06;;;;;;;7.20;6.60;;;;;;;;;;5036428;28;20278;-64
2021/08/23 03:43:31;;;;;;;6.97;6.37;;;;;;;;;;5053518;28;20464;-65
2021/08/23 03:45:56;;;;;;;7.80;7.10;;;;;;;;;;5053605;28;20304;-63
2021/08/23 03:48:21;;;;;;;8.90;7.50;;;;;;;;;;5035995;28;20229;-64
2021/08/23 03:50:47;;;;;;;7.20;6.67;;;;;;;;;;5053281;28;20296;-64
2021/08/23 03:53:12;;;;;;;7.40;6.80;;;;;;;;;;5052606;28;20224;-64
2021/08/23 03:55:37;;;;;;;7.20;6.60;;;;;;;;;;5051321;28;20625;-64
2021/08/23 03:58:04;;;;;;;7.37;6.87;;;;;;;;;;5057082;28;20239;-65
2021/08/23 04:00:30;;;;;;;8.50;7.80;;;;;;;;;;5066493;28;20221;-64
2021/08/23 04:02:55;;;;;;;7.17;6.40;;;;;;;;;;5052301;28;20839;-64
2021/08/23 04:05:20;;;;;;;7.50;6.90;;;;;;;;;;5066711;28;20231;-66
2021/08/23 04:07:45;;;;;;;7.97;7.37;;;;;;;;;;5044288;28;20216;-64
2021/08/23 04:10:11;;;;;;;7.23;6.70;;;;;;;;;;5059615;28;20229;-64
2021/08/23 04:12:36;;;;;;;7.97;6.93;;;;;;;;;;5061478;28;20307;-64
2021/08/23 04:15:02;;;;;;;6.90;6.40;;;;;;;;;;5059465;28;20301;-65
2021/08/23 04:17:27;;;;;;;7.27;6.67;;;;;;;;;;5047962;28;20228;-65
2021/08/23 04:19:53;;;;;;;7.40;6.80;;;;;;;;;;5062683;28;20631;-63
2021/08/23 04:22:18;;;;;;;6.77;6.27;;;;;;;;;;5069960;28;20229;-64
2021/08/23 04:24:43;;;;;;;7.03;6.40;;;;;;;;;;5070235;28;20842;-65
2021/08/23 04:27:08;;;;;;;5.40;5.00;;;;;;;;;;5064539;28;20304;-64
2021/08/23 04:29:34;;;;;;;5.67;5.17;;;;;;;;;;5070706;28;20663;-64
2021/08/23 04:31:59;;;;;;;5.60;5.10;;;;;;;;;;5064078;28;20216;-64
2021/08/23 04:34:24;;;;;;;6.77;4.93;;;;;;;;;;5063314;28;20299;-65
2021/08/23 04:36:50;;;;;;;5.50;5.00;;;;;;;;;;5069827;28;20231;-65
2021/08/23 04:39:15;;;;;;;5.80;5.30;;;;;;;;;;5069971;28;20220;-64
2021/08/23 04:41:41;;;;;;;5.50;4.40;;;;;;;;;;5062733;28;20216;-64
2021/08/23 04:44:07;;;;;;;5.83;4.80;;;;;;;;;;5075741;28;20216;-64
2021/08/23 04:46:32;;;;;;;4.43;4.13;;;;;;;;;;5062761;28;20802;-64
2021/08/23 04:48:58;;;;;;;5.50;5.10;;;;;;;;;;5064876;28;20649;-65
2021/08/23 04:51:23;;;;;;;5.47;4.93;;;;;;;;;;5069677;28;20247;-64
2021/08/23 04:53:48;;;;;;;5.23;4.70;;;;;;;;;;5067854;28;20303;-64
2021/08/23 04:56:15;;;;;;;4.60;4.30;;;;;;;;;;5054144;28;20301;-64
2021/08/23 04:58:41;;;;;;;6.90;4.40;;;;;;;;;;5064416;28;20220;-64
2021/08/23 05:01:06;;;;;;;4.83;4.43;;;;;;;;;;5069912;28;20482;-64
2021/08/23 05:03:31;;;;;;;14.03;5.30;;;;;;;;;;5067338;28;20212;-65
2021/08/23 05:05:56;;;;;;;4.10;3.60;;;;;;;;;;5062918;28;20224;-64
2021/08/23 05:08:22;;;;;;;4.57;4.27;;;;;;;;;;5065474;28;20252;-65
2021/08/23 05:10:47;;;;;;;5.10;4.60;;;;;;;;;;5068993;28;20316;-64
2021/08/23 05:13:12;;;;;;;4.30;3.90;;;;;;;;;;5067081;28;20231;-65
2021/08/23 05:15:37;;;;;;;3.77;3.47;;;;;;;;;;5062254;28;20239;-63
2021/08/23 05:18:03;;;;;;;4.13;3.83;;;;;;;;;;5048015;28;20589;-63
2021/08/23 05:20:28;;;;;;;4.50;3.90;;;;;;;;;;5069381;28;20236;-64
2021/08/23 05:22:53;;;;;;;5.37;3.67;;;;;;;;;;5065768;28;20228;-64
2021/08/23 05:25:19;;;;;;;6.87;3.80;;;;;;;;;;5062487;28;20299;-64
2021/08/23 05:27:44;;;;;;;3.67;3.37;;;;;;;;;;5073225;28;20239;-63
2021/08/23 05:30:10;;;;;;;4.53;3.73;;;;;;;;;;5072361;28;20235;-63
2021/08/23 05:32:35;;;;;;;6.10;4.10;;;;;;;;;;5064687;28;20273;-63
2021/08/23 05:35:01;;;;;;;4.23;3.83;;;;;;;;;;5062329;28;20459;-64
2021/08/23 05:37:26;;;;;;;4.50;3.80;;;;;;;;;;5066516;28;20300;-64
2021/08/23 05:39:51;;;;;;;4.37;3.57;;;;;;;;;;5068818;28;20243;-64
2021/08/23 05:42:17;;;;;;;4.13;3.73;;;;;;;;;;5064679;28;20262;-65
2021/08/23 05:44:42;;;;;;;6.17;4.13;;;;;;;;;;5061824;28;20308;-65
2021/08/23 05:47:08;;;;;;;4.27;3.03;;;;;;;;;;5067190;28;20213;-65
2021/08/23 05:49:33;;;;;;;4.00;3.70;;;;;;;;;;5068396;28;20230;-64
2021/08/23 05:52:00;;;;;;;4.40;4.00;;;;;;;;;;5064055;28;20463;-65
2021/08/23 05:54:25;;;;;;;4.00;3.50;;;;;;;;;;5060746;28;20243;-64
2021/08/23 05:56:52;;;;;;;4.37;4.07;;;;;;;;;;5071100;28;20538;-64
2021/08/23 05:59:18;;;;;;;4.13;3.83;;;;;;;;;;5061545;28;20303;-65
2021/08/23 06:01:43;;;;;;;4.30;3.60;;;;;;;;;;5067566;28;20870;-65
2021/08/23 06:04:08;;;;;;;4.00;3.63;;;;;;;;;;5072128;28;20213;-64
2021/08/23 06:06:34;;;;;;;3.43;3.13;;;;;;;;;;5062517;28;20224;-64
2021/08/23 06:08:59;;;;;;;4.10;3.70;;;;;;;;;;5061743;28;20225;-64
2021/08/23 06:11:24;;;;;;;6.40;4.03;;;;;;;;;;5061295;28;20303;-64
2021/08/23 06:13:49;;;;;;;5.20;3.93;;;;;;;;;;5062389;28;20240;-64
2021/08/23 06:16:15;;;;;;;4.37;4.03;;;;;;;;;;5068325;28;20229;-64
2021/08/23 06:18:40;;;;;;;3.77;3.33;;;;;;;;;;5066287;28;20235;-64
2021/08/23 06:21:09;;;;;;;9.83;3.50;;;;;;;;;;5061406;28;20378;-64
2021/08/23 06:23:34;;;;;;;8.10;3.67;;;;;;;;;;5062782;28;20590;-63
2021/08/23 06:25:59;;;;;;;3.77;3.43;;;;;;;;;;5067806;28;20456;-64
2021/08/23 06:28:24;;;;;;;4.67;3.03;;;;;;;;;;5066307;28;20235;-64
2021/08/23 06:30:50;;;;;;;4.97;3.70;;;;;;;;;;5069127;28;20229;-63
2021/08/23 06:33:15;;;;;;;7.00;3.40;;;;;;;;;;5066548;28;20239;-64
2021/08/23 06:35:42;;;;;;;4.53;4.13;;;;;;;;;;5060489;28;20254;-64
2021/08/23 06:38:08;;;;;;;4.30;3.90;;;;;;;;;;5062466;28;20294;-64
2021/08/23 06:40:33;;;;;;;4.03;3.73;;;;;;;;;;5067714;28;20463;-64
2021/08/23 06:42:59;;;;;;;4.00;3.50;;;;;;;;;;5065744;28;20224;-64
2021/08/23 06:45:25;;;;;;;4.07;3.73;;;;;;;;;;5061010;28;20220;-64
2021/08/23 06:47:50;;;;;;;3.83;3.43;;;;;;;;;;5062314;28;20227;-64
2021/08/23 06:50:15;;;;;;;4.43;3.70;;;;;;;;;;5067800;28;20321;-64
2021/08/23 06:52:42;;;;;;;3.60;3.30;;;;;;;;;;5065106;28;20231;-64
2021/08/23 06:55:07;;;;;;;3.80;3.30;;;;;;;;;;5056071;28;20318;-64
2021/08/23 06:57:33;;;;;;;3.60;3.30;;;;;;;;;;5067456;28;20490;-64
2021/08/23 06:59:58;;;;;;;5.13;4.73;;;;;;;;;;5042785;28;20235;-64
2021/08/23 07:02:23;;;;;;;4.83;4.30;;;;;;;;;;5061094;28;20697;-65
2021/08/23 07:04:49;;;;;;;4.20;3.13;;;;;;;;;;5067047;28;20224;-65
2021/08/23 07:07:18;;;;;;;4.70;4.20;;;;;;;;;;5066703;28;20220;-65
2021/08/23 07:09:43;;;;;;;4.03;3.63;;;;;;;;;;5059808;28;20540;-64
2021/08/23 07:12:09;;;;;;;6.67;3.87;;;;;;;;;;5072936;28;20455;-64
2021/08/23 07:14:36;;;;;;;5.20;4.00;;;;;;;;;;5060491;28;20224;-64
2021/08/23 07:17:04;;;;;;;3.30;3.00;;;;;;;;;;5061297;28;20229;-64
2021/08/23 07:19:29;;;;;;;4.80;4.00;;;;;;;;;;5066555;28;20574;-64
2021/08/23 07:21:54;;;;;;;8.20;3.57;;;;;;;;;;5065353;28;20547;-64
2021/08/23 07:24:19;;;;;;;3.97;3.67;;;;;;;;;;5060588;28;20228;-64
2021/08/23 07:26:45;;;;;;;5.00;3.40;;;;;;;;;;5043678;28;20217;-63
2021/08/23 07:29:14;;;;;;;6.17;3.10;;;;;;;;;;5066966;28;20255;-64
2021/08/23 07:31:41;;;;;;;4.90;3.53;;;;;;;;;;5066095;28;20248;-63
2021/08/23 07:34:06;;;;;;;3.87;3.53;;;;;;;;;;5060067;28;20470;-64
2021/08/23 07:36:31;;;;;;;3.63;3.33;;;;;;;;;;5060617;28;20479;-63
2021/08/23 07:38:56;;;;;;;4.57;3.37;;;;;;;;;;5066652;28;20322;-62
2021/08/23 07:41:21;;;;;;;3.63;3.33;;;;;;;;;;5066345;28;20228;-64
2021/08/23 07:43:47;;;;;;;3.03;2.57;;;;;;;;;;5059896;28;20290;-63
2021/08/23 07:46:12;;;;;;;6.30;3.90;;;;;;;;;;5060715;28;20220;-63
2021/08/23 07:48:37;;;;;;;3.73;3.10;;;;;;;;;;5049147;28;20252;-63
2021/08/23 07:51:03;;;;;;;6.37;3.77;;;;;;;;;;5065138;28;20216;-64
2021/08/23 07:53:28;;;;;;;5.90;3.90;;;;;;;;;;5060179;28;20224;-63
2021/08/23 07:55:53;;;;;;;3.30;3.00;;;;;;;;;;5059801;28;20243;-63
2021/08/23 07:58:20;;;;;;;4.00;3.53;;;;;;;;;;5066896;28;20355;-63
2021/08/23 08:00:45;;;;;;;3.37;3.07;;;;;;;;;;5066142;28;20228;-64
2021/08/23 08:03:10;;;;;;;4.43;3.00;;;;;;;;;;5059606;28;20470;-63
2021/08/23 08:05:38;;;;;;;3.77;3.43;;;;;;;;;;5060753;28;20645;-64
2021/08/23 08:08:07;;;;;;;3.70;3.40;;;;;;;;;;5066219;28;20231;-63
2021/08/23 08:10:33;;;;;;;4.37;3.00;;;;;;;;;;5066328;28;20459;-63
2021/08/23 08:12:58;;;;;;;3.90;3.07;;;;;;;;;;5060111;28;20950;-63
2021/08/23 08:15:24;;;;;;;3.57;2.70;;;;;;;;;;5059701;28;20486;-63
2021/08/23 08:17:49;;;;;;;3.53;3.00;;;;;;;;;;5065944;28;20567;-64
2021/08/23 08:20:14;;;;;;;6.13;3.27;;;;;;;;;;5066407;28;20679;-63
2021/08/23 08:22:40;;;;;;;2.97;2.67;;;;;;;;;;5042382;28;20299;-63
2021/08/23 08:25:06;;;;;;;3.10;2.80;;;;;;;;;;5059533;28;20232;-62
2021/08/23 08:27:31;;;;;;;5.07;3.20;;;;;;;;;;5066753;28;20225;-63
2021/08/23 08:29:59;;;;;;;3.87;2.50;;;;;;;;;;5047583;28;20811;-62
2021/08/23 08:32:24;;;;;;;4.17;3.20;;;;;;;;;;5063960;28;20210;-63
2021/08/23 08:34:49;;;;;;;5.60;2.40;;;;;;;;;;5065657;28;20478;-62
2021/08/23 08:37:15;;;;;;;3.43;3.07;;;;;;;;;;5057125;28;20228;-62
2021/08/23 08:39:41;;;;;;;3.60;3.00;;;;;;;;;;5059828;28;20312;-64
2021/08/23 08:42:06;;;;;;;4.40;3.30;;;;;;;;;;5062579;28;20224;-62
2021/08/23 08:44:33;;;;;;;6.10;3.00;;;;;;;;;;5052221;28;20495;-62
2021/08/23 08:46:59;;;;;;;3.13;2.83;;;;;;;;;;5056503;28;20263;-63
2021/08/23 08:49:24;;;;;;;4.83;2.67;;;;;;;;;;5042608;28;20859;-62
2021/08/23 08:51:50;;;;;;;2.90;2.37;;;;;;;;;;5031670;28;20229;-63
2021/08/23 08:54:15;;;;;;;3.90;2.30;;;;;;;;;;5047983;28;20314;-63
2021/08/23 08:56:41;;;;;;;2.83;2.43;;;;;;;;;;5058949;28;20256;-63
2021/08/23 08:59:06;;;;;;;2.60;2.40;;;;;;;;;;5041928;28;20563;-63
2021/08/23 09:01:32;;;;;;;4.97;2.80;;;;;;;;;;5067589;28;20217;-62
2021/08/23 09:04:05;;;;;;;3.30;2.40;;;;;;;;;;5066344;28;20568;-62
2021/08/23 09:06:40;;;;;;;2.30;2.10;;;;;;;;;;5049792;28;20509;-62
2021/08/23 09:09:10;;;;;;;6.23;2.37;;;;;;;;;;5072811;28;20458;-63
2021/08/23 09:11:36;;;;;;;2.60;2.40;;;;;;;;;;5056708;28;20541;-63
2021/08/23 09:14:04;;;;;;;3.00;2.23;;;;;;;;;;5069095;28;20462;-63
2021/08/23 09:16:31;;;;;;;3.60;2.47;;;;;;;;;;5064088;28;20235;-62
2021/08/23 09:18:57;;;;;;;3.00;2.70;;;;;;;;;;5062182;28;20537;-63
2021/08/23 09:21:31;;;;;;;3.07;2.60;;;;;;;;;;5067873;28;20464;-63
2021/08/23 09:23:59;;;;;;;3.60;2.23;;;;;;;;;;5068822;28;20308;-62
2021/08/23 09:26:33;;;;;;;4.20;3.20;;;;;;;;;;5066013;28;20470;-62
2021/08/23 09:29:04;;;;;;;3.10;2.53;;;;;;;;;;5061775;28;20845;-64
2021/08/23 09:31:31;;;;;;;3.17;2.40;;;;;;;;;;5064222;28;20536;-62
2021/08/23 09:34:01;;;;;;;3.50;2.10;;;;;;;;;;5068698;28;20570;-61
2021/08/23 09:36:27;;;;;;;2.60;2.40;;;;;;;;;;5062192;28;20471;-62
2021/08/23 09:39:00;;;;;;;3.73;2.40;;;;;;;;;;5068626;28;20466;-63
2021/08/23 09:41:26;;;;;;;3.67;2.60;;;;;;;;;;5068907;28;20668;-62
2021/08/23 09:44:03;;;;;;;2.47;2.27;;;;;;;;;;5061381;28;20517;-62
2021/08/23 09:46:32;;;;;;;3.57;2.23;;;;;;;;;;5061977;28;20240;-62
2021/08/23 09:48:58;;;;;;;5.60;2.40;;;;;;;;;;5067130;28;20474;-62
2021/08/23 09:51:40;;;;;;;5.00;2.97;;;;;;;;;;5068710;28;20946;-62
2021/08/23 09:54:11;;;;;;;2.40;2.20;;;;;;;;;;5065047;28;20232;-62
2021/08/23 09:56:48;;;;;;;4.30;2.40;;;;;;;;;;5061699;28;20474;-62
2021/08/23 09:59:19;;;;;;;2.73;2.53;;;;;;;;;;5061435;28;20451;-62
2021/08/23 10:01:45;;;;;;;2.23;2.03;;;;;;;;;;5067758;28;20468;-62
2021/08/23 10:04:12;;;;;;;3.67;1.93;;;;;;;;;;5068291;28;20446;-63
2021/08/23 10:06:38;;;;;;;3.03;2.27;;;;;;;;;;5063199;28;20455;-63
2021/08/23 10:09:05;;;;;;;2.80;2.50;;;;;;;;;;5060843;28;20554;-62
2021/08/23 10:11:38;;;;;;;3.80;2.40;;;;;;;;;;5066903;28;20907;-65
2021/08/23 10:14:24;;;;;;;2.80;2.47;;;;;;;;;;5055988;28;20459;-67
2021/08/23 10:16:51;;;;;;;3.43;2.63;;;;;;;;;;5022584;28;20479;-70
2021/08/23 10:19:17;;;;;;;5.53;2.50;;;;;;;;;;5054840;28;20463;-65
2021/08/23 10:21:51;;;;;;;3.70;2.57;;;;;;;;;;5062777;28;20473;-66
2021/08/23 10:24:25;;;;;;;5.07;4.30;;;;;;;;;;5061536;28;20626;-66
2021/08/23 10:26:51;;;;;;;3.47;3.17;;;;;;;;;;5063941;28;20455;-66
2021/08/23 10:29:16;;;;;;;3.53;3.13;;;;;;;;;;5068155;28;20463;-65
2021/08/23 10:31:44;;;;;;;2.80;2.47;;;;;;;;;;5064488;28;20690;-65
2021/08/23 10:34:20;;;;;;;2.77;2.27;;;;;;;;;;5060946;28;20679;-65
2021/08/23 10:36:50;;;;;;;6.00;2.63;;;;;;;;;;5060528;28;20459;-65
2021/08/23 10:39:23;;;;;;;4.67;3.87;;;;;;;;;;5065734;28;20483;-65
2021/08/23 10:41:50;;;;;;;7.97;6.33;;;;;;;;;;5066998;28;20459;-65
2021/08/23 10:44:31;;;;;;;10.20;7.20;;;;;;;;;;5036431;28;20488;-65
2021/08/23 10:47:03;;;;;;;4.70;3.60;;;;;;;;;;5059031;28;20798;-65
2021/08/23 10:49:38;;;;;;;5.00;4.10;;;;;;;;;;5068686;28;20816;-64
2021/08/23 10:52:03;;;;;;;5.27;2.87;;;;;;;;;;5060022;28;20519;-64
2021/08/23 10:54:37;;;;;;;4.87;3.53;;;;;;;;;;5063302;28;20467;-65
2021/08/23 10:57:02;;;;;;;4.07;3.23;;;;;;;;;;5062934;28;20576;-65
2021/08/23 10:59:39;;;;;;;7.00;4.47;;;;;;;;;;5060706;28;20462;-65
2021/08/23 11:02:04;;;;;;;4.00;3.07;;;;;;;;;;5065913;28;20512;-65
2021/08/23 11:04:31;;;;;;;4.47;3.13;;;;;;;;;;5063009;28;20508;-64
2021/08/23 11:06:57;;;;;;;4.13;2.93;;;;;;;;;;5063830;28;20300;-64
2021/08/23 11:09:31;;;;;;;4.27;2.63;;;;;;;;;;5060346;28;20867;-64
2021/08/23 11:12:05;;;;;;;4.10;2.90;;;;;;;;;;5061701;28;20216;-65
2021/08/23 11:14:44;;;;;;;2.87;2.57;;;;;;;;;;5067284;28;20546;-64
2021/08/23 11:17:09;;;;;;;4.63;2.80;;;;;;;;;;5066664;28;20778;-65
2021/08/23 11:19:38;;;;;;;3.90;3.30;;;;;;;;;;5060227;28;20470;-65
2021/08/23 11:22:03;;;;;;;4.07;3.13;;;;;;;;;;5060281;28;20224;-65
2021/08/23 11:24:29;;;;;;;4.87;3.60;;;;;;;;;;5067107;28;20463;-65
2021/08/23 11:27:01;;;;;;;4.77;2.90;;;;;;;;;;5060135;28;20668;-64
2021/08/23 11:29:26;;;;;;;5.40;4.07;;;;;;;;;;5053000;28;20491;-64
2021/08/23 11:31:59;;;;;;;7.53;3.20;;;;;;;;;;5058958;28;20545;-66
2021/08/23 11:34:28;;;;;;;3.50;2.83;;;;;;;;;;5065358;28;20220;-65
2021/08/23 11:37:01;;;;;;;7.10;3.53;;;;;;;;;;5061588;28;20464;-64
2021/08/23 11:39:31;;;;;;;3.33;2.93;;;;;;;;;;5063612;28;20796;-66
2021/08/23 11:42:05;;;;;;;3.70;2.93;;;;;;;;;;5066161;28;20488;-64
2021/08/23 11:44:31;;;;;;;4.00;2.80;;;;;;;;;;5064417;28;20474;-65
2021/08/23 11:46:59;;;;;;;3.47;2.40;;;;;;;;;;5058126;28;20463;-65
2021/08/23 11:49:32;;;;;;;4.87;2.67;;;;;;;;;;5061872;28;20794;-65
2021/08/23 11:51:58;;;;;;;3.90;2.43;;;;;;;;;;5066629;28;20467;-65
2021/08/23 11:54:24;;;;;;;3.30;2.30;;;;;;;;;;5064247;28;20961;-65
2021/08/23 11:56:49;;;;;;;3.30;2.80;;;;;;;;;;5059481;28;20494;-65
2021/08/23 11:59:14;;;;;;;2.63;2.30;;;;;;;;;;5060030;28;20514;-66
2021/08/23 12:01:40;;;;;;;3.80;2.60;;;;;;;;;;5065992;28;20235;-65
2021/08/23 12:04:05;;;;;;;3.63;2.77;;;;;;;;;;5065728;28;20228;-63
2021/08/23 12:06:34;;;;;;;2.60;2.40;;;;;;;;;;5059972;28;20290;-65
2021/08/23 12:09:00;;;;;;;3.80;3.30;;;;;;;;;;5059424;28;20225;-65
2021/08/23 12:11:25;;;;;;;3.33;2.43;;;;;;;;;;5032922;28;20473;-64
2021/08/23 12:13:50;;;;;;;2.90;2.57;;;;;;;;;;5029727;28;20218;-65
2021/08/23 12:16:21;;;;;;;3.00;2.13;;;;;;;;;;5019215;28;20230;-65
2021/08/23 12:18:48;;;;;;;5.53;2.90;;;;;;;;;;5020516;28;20223;-65
2021/08/23 12:21:25;;;;;;;3.53;2.43;;;;;;;;;;5025444;28;20765;-65
2021/08/23 12:23:52;;;;;;;4.57;2.80;;;;;;;;;;5026416;28;20538;-65
2021/08/23 12:26:26;;;;;;;4.00;2.83;;;;;;;;;;5020050;28;20991;-65
2021/08/23 12:29:00;;;;;;;4.40;2.90;;;;;;;;;;5018641;28;20511;-65
2021/08/23 12:31:26;;;;;;;7.83;3.37;;;;;;;;;;5024628;28;20479;-65
2021/08/23 12:33:51;;;;;;;2.97;2.30;;;;;;;;;;5026299;28;20780;-64
2021/08/23 12:36:17;;;;;;;4.13;3.30;;;;;;;;;;5020147;28;20226;-66
2021/08/23 12:38:44;;;;;;;3.57;2.80;;;;;;;;;;5018982;28;20222;-67
2021/08/23 12:41:11;;;;;;;4.00;2.87;;;;;;;;;;5027979;28;20308;-65
2021/08/23 12:43:37;;;;;;;3.90;2.40;;;;;;;;;;5030566;28;20503;-65
2021/08/23 12:46:03;;;;;;;2.27;2.07;;;;;;;;;;5025621;28;20457;-65
2021/08/23 12:48:29;;;;;;;3.70;2.40;;;;;;;;;;5023783;28;20453;-65
2021/08/23 12:50:56;;;;;;;3.47;2.53;;;;;;;;;;5027934;28;20222;-64
2021/08/23 12:53:24;;;;;;;4.93;2.90;;;;;;;;;;5010237;28;20466;-64
2021/08/23 12:55:49;;;;;;;3.93;2.70;;;;;;;;;;5016784;28;20465;-65
2021/08/23 12:58:15;;;;;;;4.70;2.67;;;;;;;;;;5029295;28;20932;-65
2021/08/23 13:00:40;;;;;;;5.40;3.13;;;;;;;;;;5029194;28;20309;-64
2021/08/23 13:03:05;;;;;;;3.83;3.00;;;;;;;;;;5021882;28;20563;-65
2021/08/23 13:05:31;;;;;;;3.30;2.60;;;;;;;;;;5022094;28;20305;-65
2021/08/23 13:07:56;;;;;;;3.67;2.60;;;;;;;;;;5029601;28;20678;-65
2021/08/23 13:10:22;;;;;;;5.13;2.57;;;;;;;;;;5046729;28;20858;-65
2021/08/23 13:12:47;;;;;;;8.00;3.33;;;;;;;;;;5062874;28;20220;-65
2021/08/23 13:15:12;;;;;;;4.33;2.87;;;;;;;;;;5064567;28;20329;-64
2021/08/23 13:17:37;;;;;;;2.93;2.60;;;;;;;;;;5069882;28;20233;-64
2021/08/23 13:20:05;;;;;;;4.00;2.67;;;;;;;;;;5066292;28;20715;-65
2021/08/23 13:22:30;;;;;;;4.23;3.00;;;;;;;;;;5062710;28;20266;-65
2021/08/23 13:24:55;;;;;;;4.30;3.17;;;;;;;;;;5065000;28;20464;-65
2021/08/23 13:27:20;;;;;;;3.50;3.10;;;;;;;;;;5059386;28;20228;-65
2021/08/23 13:29:46;;;;;;;4.03;3.00;;;;;;;;;;5066009;28;20222;-65
2021/08/23 13:32:11;;;;;;;8.33;2.70;;;;;;;;;;5068961;28;20299;-65
2021/08/23 13:34:37;;;;;;;4.07;2.90;;;;;;;;;;5066006;28;20243;-64
2021/08/23 13:37:03;;;;;;;3.10;2.80;;;;;;;;;;5058522;28;20221;-64
2021/08/23 13:39:28;;;;;;;3.97;2.53;;;;;;;;;;5055253;28;20263;-64
2021/08/23 13:41:54;;;;;;;3.37;3.07;;;;;;;;;;5036054;28;20467;-65
2021/08/23 13:44:19;;;;;;;3.30;2.67;;;;;;;;;;5055316;28;20296;-65
2021/08/23 13:46:44;;;;;;;3.33;3.03;;;;;;;;;;5055490;28;20656;-65
2021/08/23 13:49:09;;;;;;;6.03;3.30;;;;;;;;;;5053595;28;20296;-65
2021/08/23 13:51:35;;;;;;;5.93;2.70;;;;;;;;;;5053485;28;20217;-65
2021/08/23 13:54:00;;;;;;;5.70;3.20;;;;;;;;;;5052836;28;20239;-65
2021/08/23 13:56:26;;;;;;;4.60;2.67;;;;;;;;;;5053699;28;20308;-64
2021/08/23 13:58:56;;;;;;;4.13;3.07;;;;;;;;;;5053026;28;20247;-64
2021/08/23 14:01:22;;;;;;;2.73;2.47;;;;;;;;;;5053114;28;20282;-65
2021/08/23 14:03:47;;;;;;;4.97;3.20;;;;;;;;;;5053650;28;20451;-65
2021/08/23 14:06:12;;;;;;;3.47;2.50;;;;;;;;;;5055015;28;20278;-65
2021/08/23 14:08:38;;;;;;;3.00;2.43;;;;;;;;;;5055371;28;20299;-66
2021/08/23 14:11:03;;;;;;;3.40;2.60;;;;;;;;;;5054577;28;20306;-65
2021/08/23 14:13:28;;;;;;;3.40;2.70;;;;;;;;;;5055193;28;20232;-66
2021/08/23 14:15:53;;;;;;;5.40;3.13;;;;;;;;;;5028786;28;20243;-66
2021/08/23 14:18:19;;;;;;;4.30;3.20;;;;;;;;;;5054326;28;20341;-66
2021/08/23 14:20:44;;;;;;;3.33;2.67;;;;;;;;;;5037575;28;20253;-66
2021/08/23 14:23:09;;;;;;;5.60;3.30;;;;;;;;;;5054776;28;20267;-66
2021/08/23 14:25:34;;;;;;;3.97;3.20;;;;;;;;;;5054837;28;20525;-66
2021/08/23 14:28:03;;;;;;;5.40;2.90;;;;;;;;;;5055008;28;20292;-65
2021/08/23 14:30:31;;;;;;;3.83;2.90;;;;;;;;;;5054078;28;20209;-66
2021/08/23 14:32:56;;;;;;;3.87;2.63;;;;;;;;;;5055062;28;20859;-66
2021/08/23 14:35:21;;;;;;;3.50;2.97;;;;;;;;;;5054366;28;20571;-65